Terminal Aerodrome Forecast
Issued by NWS

Home | Current Version | Previous Version | Text Only | Print | Product List | Glossary On
Versions: 1 2 3 4 5 6 7 8 9 10 11 12 13 14 15 16 17 18 19 20 21
000
FTUS41 KOKX 041129
TAFSWF
TAF
KSWF 041129Z 0412/0518 VRB02KT P6SM FEW100
     FM041500 25006KT P6SM SKC
     FM041700 23011G18KT P6SM FEW080 SCT250
     FM042300 23009KT P6SM FEW080 SCT250
     FM050500 25005KT P6SM FEW070
     FM051200 27006KT P6SM BKN090 PROB30 0512/0518 -SHRA
      AMD NOT SKED=

USA.gov is the U.S. government's official web portal to all federal, state and local government web resources and services.